Aérodrome :
LOGIN :

S'inscrire | Disclaimer

   EN    FR    IT 

 










Légende :    VFR   VFR Marginal   IFR   IFR Intensif   IFR Très Intensif
Visi : 
Plafond : 
>= 8 km
>= 3000ft
5 à 8 km
1000 à 3000 ft
1500m à 5 km
500 à 1000 ft
800 à 1500m
200 à 500 ft
< 800m
< 200 ft
Symboles :   Orages  Brouillard  Fortes neiges  Fortes précipitations  Vent > 20 kt
SIGMETs :   Divers  Orages  Givrage  Turbulence  Onde Orograph.  Cendres Volcan.






- Altitude de l'aérodrome : 36 ft
- Code IATA : LTQ


LFAT - Le Touquet

DERNIER METAR :
  • 071300Z AUTO 27007KT 240V310 9999 OVC038 11/05 Q1016 NOSIG

METARs EXPIRÉS :
  • 071230Z AUTO 27007KT 240V300 9999 OVC037 11/06 Q1016 NOSIG
  • 071200Z AUTO 28006KT 240V320 9999 FEW028 OVC036 11/06 Q1016 NOSIG
  • 071130Z AUTO 29007KT 260V320 9999 SCT028 OVC036 11/07 Q1016 NOSIG
  • 071100Z AUTO 29008KT 260V320 9999 FEW020 BKN028 BKN033 11/07 Q1016 NOSIG
  • 071030Z AUTO 28006KT 250V320 9999 SCT028 OVC036 11/06 Q1016 NOSIG

TAF TAF LFAT
Valide du 07 à 12h jusqu'au 07 à 21h UTC


071100Z 0712/0721 28007KT 9999 BKN030
BECMG 0716/0719 22017KT
ATIS : +33 3 21 06 62 84



MET'MAP, la Météo Aéronautique d'un coup d'oeil ! - Copyright ORBIFLY Décembre 2007 - Disclaimer

ORBIFLY MET'MAP TEAM :

Programmation & Développement : Alexandra Zaïnal
Sur une idée originale de : Baudouin d'Aumeries
Assistance à la programmation : Marc-Olivier Méhu
Soutien technique & logistique : Manuel Goepfert

Contact : metmap@orbifly.com




SOURCES & CREDITS :

   NOAA